createdAt,value
2022-12-07T00:01:46.743Z,1.40
2022-12-07T00:04:16.974Z,1.40
2022-12-07T00:06:47.535Z,1.30
2022-12-07T00:09:16.580Z,1.40
2022-12-07T00:11:44.083Z,1.40
2022-12-07T00:14:15.409Z,1.40
2022-12-07T00:16:43.568Z,1.40
2022-12-07T00:19:13.619Z,1.40
2022-12-07T00:21:40.483Z,1.40
2022-12-07T00:24:08.860Z,1.40
2022-12-07T00:26:38.433Z,1.40
2022-12-07T00:29:26.821Z,1.40
2022-12-07T00:31:53.708Z,1.40
2022-12-07T00:34:22.468Z,1.40
2022-12-07T00:36:51.955Z,1.40
2022-12-07T00:39:19.774Z,1.40
2022-12-07T00:41:48.165Z,1.40
2022-12-07T00:44:17.753Z,1.40
2022-12-07T00:46:46.326Z,1.40
2022-12-07T00:49:16.749Z,1.40
2022-12-07T00:51:43.562Z,1.40
2022-12-07T00:54:11.609Z,1.40
2022-12-07T00:56:39.090Z,1.40
2022-12-07T00:59:07.821Z,1.40
2022-12-07T01:01:37.496Z,1.40
2022-12-07T01:04:06.153Z,1.40
2022-12-07T01:06:35.640Z,1.40
2022-12-07T01:09:03.326Z,1.40
2022-12-07T01:11:31.798Z,1.40
2022-12-07T01:14:00.313Z,1.40
2022-12-07T01:16:31.340Z,1.40
2022-12-07T01:19:02.206Z,1.50
2022-12-07T01:21:38.584Z,1.50
2022-12-07T01:24:11.269Z,1.50
2022-12-07T01:26:38.266Z,1.50
2022-12-07T01:29:06.319Z,1.50
2022-12-07T01:31:33.207Z,1.50
2022-12-07T01:34:02.144Z,1.50
2022-12-07T01:36:36.595Z,1.50
2022-12-07T01:39:07.222Z,1.40
2022-12-07T01:41:42.211Z,1.40
2022-12-07T01:44:32.939Z,1.40
2022-12-07T01:47:04.805Z,1.30
2022-12-07T01:49:44.950Z,1.40
2022-12-07T01:52:24.149Z,1.40
2022-12-07T01:54:56.275Z,1.30
2022-12-07T01:57:24.858Z,1.40
2022-12-07T01:59:53.980Z,1.40
2022-12-07T02:02:53.543Z,1.40
2022-12-07T02:05:24.190Z,1.40
2022-12-07T02:07:55.937Z,1.40
2022-12-07T02:10:25.887Z,1.40
2022-12-07T02:13:07.171Z,1.40
2022-12-07T02:15:41.082Z,1.40
2022-12-07T02:18:21.605Z,1.40
2022-12-07T02:21:13.302Z,1.40
2022-12-07T02:24:07.342Z,1.40
2022-12-07T02:27:01.501Z,1.40
2022-12-07T02:29:37.305Z,1.40
2022-12-07T02:32:13.916Z,1.30
2022-12-07T02:34:53.771Z,1.30
2022-12-07T02:37:44.442Z,1.30
2022-12-07T02:40:19.633Z,1.30
2022-12-07T02:42:54.510Z,1.30
2022-12-07T02:45:27.412Z,1.30
2022-12-07T02:47:59.703Z,1.30
2022-12-07T02:50:26.927Z,1.40
2022-12-07T02:52:55.185Z,1.40
2022-12-07T02:55:28.189Z,1.40
2022-12-07T02:58:07.575Z,1.40
2022-12-07T03:00:49.401Z,1.40
2022-12-07T03:03:18.490Z,1.40
2022-12-07T03:06:05.179Z,1.40
2022-12-07T03:08:37.597Z,1.50
2022-12-07T03:11:09.920Z,1.50
2022-12-07T03:13:51.657Z,1.50
2022-12-07T03:16:28.084Z,1.50
2022-12-07T03:18:59.246Z,1.50
2022-12-07T03:21:40.466Z,1.60
2022-12-07T03:24:13.201Z,1.60
2022-12-07T03:26:49.582Z,1.60
2022-12-07T03:29:29.955Z,1.60
2022-12-07T03:32:25.294Z,1.60
2022-12-07T03:35:14.909Z,1.60
2022-12-07T03:37:54.885Z,1.70
2022-12-07T03:40:39.686Z,1.70
2022-12-07T03:43:06.821Z,1.70
2022-12-07T03:46:15.611Z,1.70
2022-12-07T03:49:11.063Z,1.80
2022-12-07T03:51:44.803Z,1.80
2022-12-07T03:58:26.605Z,1.80
2022-12-07T04:00:55.191Z,1.80
2022-12-07T04:03:22.173Z,1.80
2022-12-07T04:05:50.323Z,1.80
2022-12-07T04:08:18.374Z,1.80
2022-12-07T04:10:46.465Z,1.90
2022-12-07T04:13:14.440Z,1.90
2022-12-07T04:15:44.256Z,1.90
2022-12-07T04:18:11.018Z,1.90
2022-12-07T04:20:40.662Z,1.90
2022-12-07T04:23:07.469Z,1.90
2022-12-07T04:25:34.224Z,1.90
2022-12-07T04:28:02.679Z,1.90
2022-12-07T04:30:31.309Z,1.90
2022-12-07T04:32:58.064Z,1.90
2022-12-07T04:35:26.671Z,1.90
2022-12-07T04:37:53.502Z,1.90
2022-12-07T04:40:20.279Z,1.90
2022-12-07T04:42:48.251Z,1.90
2022-12-07T04:45:16.360Z,2.00
2022-12-07T04:47:44.341Z,2.00
2022-12-07T04:50:12.722Z,1.90
2022-12-07T04:52:41.357Z,2.00
2022-12-07T04:55:09.621Z,2.00
2022-12-07T04:57:36.395Z,2.00
2022-12-07T05:00:06.162Z,1.90
2022-12-07T05:02:34.451Z,2.00
2022-12-07T05:05:01.260Z,2.00
2022-12-07T05:07:29.779Z,2.00
2022-12-07T05:09:56.594Z,2.00
2022-12-07T05:12:24.432Z,2.00
2022-12-07T05:14:51.178Z,2.00
2022-12-07T05:17:19.523Z,2.00
2022-12-07T05:19:47.506Z,2.00
2022-12-07T05:22:14.432Z,2.00
2022-12-07T05:24:41.282Z,2.00
2022-12-07T05:27:09.431Z,2.00
2022-12-07T05:29:36.300Z,2.00
2022-12-07T05:32:03.121Z,2.00
2022-12-07T05:34:31.503Z,2.00
2022-12-07T05:36:58.321Z,2.00
2022-12-07T05:39:26.345Z,2.00
2022-12-07T05:42:13.064Z,2.00
2022-12-07T05:44:43.421Z,2.00
2022-12-07T05:47:10.939Z,2.00
2022-12-07T05:49:37.993Z,2.00
2022-12-07T05:52:06.757Z,2.00
2022-12-07T05:54:34.804Z,2.00
2022-12-07T05:57:01.634Z,2.10
2022-12-07T05:59:28.817Z,2.10
2022-12-07T06:02:05.682Z,2.10
2022-12-07T06:04:36.733Z,2.10
2022-12-07T06:07:03.738Z,2.10
2022-12-07T06:09:31.070Z,2.10
2022-12-07T06:12:19.791Z,2.10
2022-12-07T06:14:47.629Z,2.10
2022-12-07T06:17:14.716Z,2.10
2022-12-07T06:19:41.917Z,2.10
2022-12-07T06:22:13.680Z,2.10
2022-12-07T06:24:41.230Z,2.20
2022-12-07T06:27:08.460Z,2.10
2022-12-07T06:29:36.724Z,2.20
2022-12-07T06:32:04.351Z,2.20
2022-12-07T06:34:32.952Z,2.20
2022-12-07T06:36:59.723Z,2.20
2022-12-07T06:39:29.592Z,2.20
2022-12-07T06:41:57.700Z,2.20
2022-12-07T06:44:26.367Z,2.20
2022-12-07T06:47:06.687Z,2.20
2022-12-07T06:49:41.687Z,2.20
2022-12-07T06:52:08.527Z,2.20
2022-12-07T06:54:36.516Z,2.20
2022-12-07T06:57:04.550Z,2.20
2022-12-07T06:59:32.709Z,2.20
2022-12-07T07:01:59.524Z,2.20
2022-12-07T07:04:26.409Z,2.20
2022-12-07T07:06:59.771Z,2.20
2022-12-07T07:09:27.279Z,2.20
2022-12-07T07:11:55.300Z,2.20
2022-12-07T07:14:22.857Z,2.20
2022-12-07T07:16:52.924Z,2.20
2022-12-07T07:19:19.893Z,2.20
2022-12-07T07:21:49.452Z,2.20
2022-12-07T07:24:17.406Z,2.30
2022-12-07T07:26:45.767Z,2.20
2022-12-07T07:29:12.555Z,2.20
2022-12-07T07:31:39.378Z,2.30
2022-12-07T07:34:07.838Z,2.20
2022-12-07T07:36:34.634Z,2.30
2022-12-07T07:39:07.052Z,2.30
2022-12-07T07:41:33.846Z,2.30
2022-12-07T07:44:02.789Z,2.30
2022-12-07T07:46:30.858Z,2.30
2022-12-07T07:48:57.652Z,2.30
2022-12-07T07:51:24.424Z,2.30
2022-12-07T07:53:52.918Z,2.30
2022-12-07T07:56:19.669Z,2.30
2022-12-07T07:58:46.479Z,2.30
2022-12-07T08:01:15.960Z,2.30
2022-12-07T08:03:42.797Z,2.30
2022-12-07T08:06:10.803Z,2.30
2022-12-07T08:08:38.774Z,2.30
2022-12-07T08:11:08.292Z,2.30
2022-12-07T08:13:35.076Z,2.30
2022-12-07T08:16:07.160Z,2.30
2022-12-07T08:18:40.988Z,2.30
2022-12-07T08:21:12.348Z,2.30
2022-12-07T08:23:40.154Z,2.30
2022-12-07T08:26:15.704Z,2.30
2022-12-07T08:28:46.010Z,2.30
2022-12-07T08:31:17.394Z,2.30
2022-12-07T08:33:49.208Z,2.40
2022-12-07T08:36:19.355Z,2.40
2022-12-07T08:39:08.351Z,2.40
2022-12-07T08:41:34.938Z,2.30
2022-12-07T08:44:03.417Z,2.40
2022-12-07T08:46:41.088Z,2.40
2022-12-07T08:49:21.032Z,2.40
2022-12-07T08:51:49.294Z,2.40
2022-12-07T08:54:20.133Z,2.40
2022-12-07T08:56:55.426Z,2.40
2022-12-07T08:59:27.983Z,2.40
2022-12-07T09:01:54.890Z,2.40
2022-12-07T09:04:23.263Z,2.40
2022-12-07T09:06:50.348Z,2.40
2022-12-07T09:09:17.187Z,2.40
2022-12-07T09:11:46.219Z,2.40
2022-12-07T09:14:13.779Z,2.40
2022-12-07T09:16:42.130Z,2.40
2022-12-07T09:19:10.209Z,2.40
2022-12-07T09:21:37.025Z,2.40
2022-12-07T09:24:05.351Z,2.40
2022-12-07T09:26:32.177Z,2.40
2022-12-07T09:28:58.914Z,2.40
2022-12-07T09:31:27.307Z,2.40
2022-12-07T09:34:00.981Z,2.50
2022-12-07T09:36:29.230Z,2.40
2022-12-07T09:38:56.178Z,2.40
2022-12-07T09:41:27.506Z,2.40
2022-12-07T09:44:05.822Z,2.40
2022-12-07T09:46:39.567Z,2.30
2022-12-07T09:49:15.468Z,2.30
2022-12-07T09:51:42.337Z,2.30
2022-12-07T09:54:10.443Z,2.30
2022-12-07T09:56:39.370Z,2.30
2022-12-07T09:59:11.570Z,2.40
2022-12-07T10:01:40.024Z,2.40
2022-12-07T10:04:17.775Z,2.40
2022-12-07T10:06:44.789Z,2.40
2022-12-07T10:09:13.549Z,2.40
2022-12-07T10:12:01.526Z,2.40
2022-12-07T10:15:05.768Z,2.50
2022-12-07T10:17:41.868Z,2.40
2022-12-07T10:20:20.725Z,2.50
2022-12-07T10:23:05.669Z,2.50
2022-12-07T10:25:36.049Z,2.50
2022-12-07T10:28:13.775Z,2.50
2022-12-07T10:30:56.003Z,2.50
2022-12-07T10:33:30.206Z,2.60
2022-12-07T10:35:59.642Z,2.60
2022-12-07T10:38:28.500Z,2.60
2022-12-07T10:41:07.130Z,2.50
2022-12-07T10:43:35.620Z,2.60
2022-12-07T10:46:24.555Z,2.60
2022-12-07T10:49:18.522Z,2.60
2022-12-07T10:51:57.237Z,2.60
2022-12-07T10:54:38.212Z,2.60
2022-12-07T10:57:42.411Z,2.60
2022-12-07T11:00:17.225Z,2.70
2022-12-07T11:02:48.154Z,2.70
2022-12-07T11:05:28.620Z,2.70
2022-12-07T11:08:11.097Z,2.80
2022-12-07T11:10:48.354Z,2.80
2022-12-07T11:13:28.767Z,2.80
2022-12-07T11:16:29.484Z,2.80
2022-12-07T11:19:16.360Z,2.80
2022-12-07T11:22:04.792Z,2.80
2022-12-07T11:25:16.247Z,2.90
2022-12-07T11:27:58.118Z,2.90
2022-12-07T11:30:38.063Z,2.90
2022-12-07T11:33:31.826Z,2.90
2022-12-07T11:36:47.018Z,2.90
2022-12-07T11:39:19.308Z,2.90
2022-12-07T11:41:50.411Z,2.90
2022-12-07T11:44:21.556Z,2.90
2022-12-07T11:47:13.571Z,2.80
2022-12-07T11:50:04.000Z,2.90
2022-12-07T11:52:52.763Z,2.90
2022-12-07T11:55:54.616Z,2.80
2022-12-07T11:58:34.545Z,2.80
2022-12-07T12:01:20.408Z,2.80
2022-12-07T12:04:04.922Z,2.80
2022-12-07T12:06:36.002Z,2.80
2022-12-07T12:15:41.339Z,2.80
2022-12-07T12:18:49.932Z,2.80
2022-12-07T12:21:24.830Z,2.90
2022-12-07T12:24:15.519Z,2.90
2022-12-07T12:26:56.824Z,2.90
2022-12-07T12:29:44.767Z,2.90
2022-12-07T12:32:19.006Z,2.90
2022-12-07T12:35:04.106Z,2.90
2022-12-07T12:37:35.733Z,2.90
2022-12-07T12:40:19.001Z,2.90
2022-12-07T12:42:52.780Z,2.90
2022-12-07T12:45:28.551Z,2.90
2022-12-07T12:47:58.694Z,3.00
2022-12-07T12:50:38.037Z,2.90
2022-12-07T12:53:26.144Z,2.90
2022-12-07T12:56:30.598Z,3.00
2022-12-07T12:59:20.378Z,3.00
2022-12-07T13:01:49.827Z,3.00
2022-12-07T13:04:49.782Z,3.00
2022-12-07T13:07:45.522Z,2.90
2022-12-07T13:10:41.522Z,3.00
2022-12-07T13:13:13.459Z,2.90
2022-12-07T13:15:49.912Z,2.80
2022-12-07T13:18:30.414Z,2.80
2022-12-07T13:21:07.461Z,2.90
2022-12-07T13:23:40.096Z,2.80
2022-12-07T13:26:18.177Z,2.80
2022-12-07T13:28:52.117Z,2.80
2022-12-07T13:31:29.165Z,2.80
2022-12-07T13:33:57.814Z,2.80
2022-12-07T13:36:36.277Z,2.80
2022-12-07T13:39:25.003Z,2.80
2022-12-07T13:41:58.130Z,2.90
2022-12-07T13:44:39.148Z,2.90
2022-12-07T13:47:27.184Z,2.90
2022-12-07T13:49:57.290Z,2.90
2022-12-07T13:52:31.001Z,2.90
2022-12-07T13:55:05.244Z,2.90
2022-12-07T13:57:36.190Z,2.90
2022-12-07T14:00:06.959Z,2.90
2022-12-07T14:02:39.859Z,2.90
2022-12-07T14:05:17.230Z,2.90
2022-12-07T14:08:04.109Z,2.90
2022-12-07T14:10:52.271Z,2.90
2022-12-07T14:13:32.979Z,3.00
2022-12-07T14:16:01.882Z,2.90
2022-12-07T14:18:42.099Z,2.90
2022-12-07T14:21:16.037Z,2.90
2022-12-07T14:23:43.924Z,2.90
2022-12-07T14:26:23.324Z,2.90
2022-12-07T14:28:51.967Z,3.00
2022-12-07T14:31:27.548Z,3.00
2022-12-07T14:34:02.167Z,2.90
2022-12-07T14:36:28.938Z,2.90
2022-12-07T14:38:59.056Z,2.90
2022-12-07T14:41:44.596Z,2.90
2022-12-07T14:44:34.010Z,2.90
2022-12-07T14:49:49.107Z,2.90
2022-12-07T14:55:29.490Z,2.90
2022-12-07T14:57:58.125Z,2.90
2022-12-07T15:00:26.855Z,2.90
2022-12-07T15:02:55.496Z,2.90
2022-12-07T15:05:24.219Z,2.90
2022-12-07T15:07:51.387Z,2.90
2022-12-07T15:10:32.407Z,2.90
2022-12-07T15:13:21.383Z,2.90
2022-12-07T15:15:52.979Z,2.80
2022-12-07T15:18:22.886Z,2.80
2022-12-07T15:20:50.485Z,2.80
2022-12-07T15:23:18.489Z,2.90
2022-12-07T15:25:49.412Z,2.80
2022-12-07T15:28:16.670Z,2.80
2022-12-07T15:30:46.978Z,2.80
2022-12-07T15:33:14.570Z,2.80
2022-12-07T15:35:42.697Z,2.80
2022-12-07T15:38:11.499Z,2.80
2022-12-07T15:40:38.298Z,2.80
2022-12-07T15:43:05.589Z,2.80
2022-12-07T15:45:34.427Z,2.80
2022-12-07T15:48:27.489Z,2.70
2022-12-07T15:50:50.227Z,2.80
2022-12-07T15:53:17.045Z,2.80
2022-12-07T15:55:43.975Z,2.70
2022-12-07T15:58:13.580Z,2.80
2022-12-07T16:00:42.187Z,2.70
2022-12-07T16:03:09.114Z,2.70
2022-12-07T16:05:37.334Z,2.70
2022-12-07T16:08:04.378Z,2.70
2022-12-07T16:10:31.146Z,2.70
2022-12-07T16:12:58.016Z,2.70
2022-12-07T16:15:29.588Z,2.70
2022-12-07T16:17:58.381Z,2.70
2022-12-07T16:20:25.176Z,2.70
2022-12-07T16:22:54.257Z,2.70
2022-12-07T16:25:22.332Z,2.70
2022-12-07T16:27:49.506Z,2.70
2022-12-07T16:30:17.243Z,2.70
2022-12-07T16:32:45.366Z,2.70
2022-12-07T16:35:14.776Z,2.70
2022-12-07T16:37:43.743Z,2.70
2022-12-07T16:40:11.297Z,2.70
2022-12-07T16:42:39.414Z,2.70
2022-12-07T16:45:06.780Z,2.70
2022-12-07T16:47:40.656Z,2.60
2022-12-07T16:50:08.660Z,2.70
2022-12-07T16:52:37.465Z,2.60
2022-12-07T16:55:04.994Z,2.70
2022-12-07T16:57:33.484Z,2.60
2022-12-07T17:00:01.461Z,2.60
2022-12-07T17:02:30.064Z,2.60
2022-12-07T17:04:58.383Z,2.60
2022-12-07T17:07:25.183Z,2.60
2022-12-07T17:09:53.609Z,2.60
2022-12-07T17:12:21.447Z,2.60
2022-12-07T17:15:08.283Z,2.60
2022-12-07T17:17:37.649Z,2.60
2022-12-07T17:20:06.289Z,2.60
2022-12-07T17:22:33.048Z,2.60
2022-12-07T17:25:01.958Z,2.60
2022-12-07T17:27:34.796Z,2.60
2022-12-07T17:30:06.268Z,2.60
2022-12-07T17:32:33.072Z,2.60
2022-12-07T17:35:02.313Z,2.60
2022-12-07T17:37:33.479Z,2.50
2022-12-07T17:40:01.548Z,2.60
2022-12-07T17:42:38.751Z,2.60
2022-12-07T17:45:10.572Z,2.60
2022-12-07T17:47:40.838Z,2.60
2022-12-07T17:50:09.911Z,2.60
2022-12-07T17:52:59.377Z,2.60
2022-12-07T17:55:27.531Z,2.60
2022-12-07T17:57:55.518Z,2.60
2022-12-07T18:00:23.604Z,2.60
2022-12-07T18:02:53.557Z,2.50
2022-12-07T18:05:20.389Z,2.50
2022-12-07T18:07:47.384Z,2.50
2022-12-07T18:10:15.567Z,2.50
2022-12-07T18:12:48.866Z,2.50
2022-12-07T18:15:18.610Z,2.50
2022-12-07T18:17:45.449Z,2.50
2022-12-07T18:20:12.662Z,2.50
2022-12-07T18:22:40.627Z,2.50
2022-12-07T18:25:08.920Z,2.50
2022-12-07T18:27:37.647Z,2.40
2022-12-07T18:30:06.552Z,2.40
2022-12-07T18:32:34.601Z,2.50
2022-12-07T18:35:05.204Z,2.40
2022-12-07T18:37:33.367Z,2.40
2022-12-07T18:40:00.339Z,2.40
2022-12-07T18:42:28.639Z,2.40
2022-12-07T18:44:55.510Z,2.40
2022-12-07T18:47:23.704Z,2.40
2022-12-07T18:49:50.602Z,2.40
2022-12-07T18:52:18.639Z,2.40
2022-12-07T18:54:47.616Z,2.40
2022-12-07T18:57:14.388Z,2.40
2022-12-07T18:59:49.558Z,2.40
2022-12-07T19:02:19.110Z,2.40
2022-12-07T19:04:47.384Z,2.40
2022-12-07T19:07:14.259Z,2.40
2022-12-07T19:09:41.449Z,2.40
2022-12-07T19:12:13.971Z,2.40
2022-12-07T19:14:42.250Z,2.40
2022-12-07T19:17:12.402Z,2.40
2022-12-07T19:19:42.087Z,2.40
2022-12-07T19:22:13.115Z,2.40
2022-12-07T19:24:40.004Z,2.40
2022-12-07T19:27:09.820Z,2.50
2022-12-07T19:29:38.019Z,2.40
2022-12-07T19:32:06.043Z,2.40
2022-12-07T19:34:34.983Z,2.50
2022-12-07T19:37:03.358Z,2.50
2022-12-07T19:39:30.206Z,2.50
2022-12-07T19:41:58.955Z,2.50
2022-12-07T19:44:29.806Z,2.40
2022-12-07T19:47:04.482Z,2.50
2022-12-07T19:49:35.733Z,2.50
2022-12-07T19:52:06.079Z,2.50
2022-12-07T19:54:35.616Z,2.50
2022-12-07T19:57:05.675Z,2.40
2022-12-07T19:59:34.537Z,2.50
2022-12-07T20:02:01.427Z,2.50
2022-12-07T20:04:31.247Z,2.50
2022-12-07T20:07:01.470Z,2.50
2022-12-07T20:09:29.565Z,2.50
2022-12-07T20:12:16.255Z,2.40
2022-12-07T20:14:44.988Z,2.50
2022-12-07T20:17:13.422Z,2.40
2022-12-07T20:19:40.650Z,2.40
2022-12-07T20:22:07.669Z,2.50
2022-12-07T20:24:36.299Z,2.40
2022-12-07T20:27:05.679Z,2.40
2022-12-07T20:29:33.048Z,2.40
2022-12-07T20:31:59.940Z,2.40
2022-12-07T20:34:28.199Z,2.40
2022-12-07T20:36:56.791Z,2.40
2022-12-07T20:39:25.073Z,2.40
2022-12-07T20:42:10.995Z,2.40
2022-12-07T20:44:39.316Z,2.40
2022-12-07T20:47:08.330Z,2.30
2022-12-07T20:49:37.073Z,2.40
2022-12-07T20:52:04.259Z,2.30
2022-12-07T20:54:32.397Z,2.30
2022-12-07T20:57:01.074Z,2.40
2022-12-07T20:59:27.876Z,2.40
2022-12-07T21:01:56.119Z,2.30
2022-12-07T21:04:24.002Z,2.40
2022-12-07T21:06:52.089Z,2.40
2022-12-07T21:09:26.489Z,2.40
2022-12-07T21:11:55.421Z,2.40
2022-12-07T21:14:22.748Z,2.40
2022-12-07T21:16:49.616Z,2.40
2022-12-07T21:19:18.249Z,2.40
2022-12-07T21:21:44.996Z,2.40
2022-12-07T21:24:13.155Z,2.40
2022-12-07T21:26:41.157Z,2.40
2022-12-07T21:29:08.065Z,2.40
2022-12-07T21:31:35.459Z,2.40
2022-12-07T21:34:04.985Z,2.40
2022-12-07T21:36:33.465Z,2.30
2022-12-07T21:39:02.082Z,2.30
2022-12-07T21:41:31.987Z,2.30
2022-12-07T21:44:00.568Z,2.30
2022-12-07T21:46:34.211Z,2.30
2022-12-07T21:49:10.368Z,2.30
2022-12-07T21:51:41.933Z,2.30
2022-12-07T21:54:10.474Z,2.30
2022-12-07T21:56:44.212Z,2.30
2022-12-07T21:59:15.260Z,2.30
2022-12-07T22:01:46.920Z,2.20
2022-12-07T22:04:17.546Z,2.20
2022-12-07T22:06:46.218Z,2.20
2022-12-07T22:09:14.319Z,2.20
2022-12-07T22:11:42.321Z,2.20
2022-12-07T22:14:28.940Z,2.20
2022-12-07T22:16:58.572Z,2.20
2022-12-07T22:19:26.189Z,2.20
2022-12-07T22:21:53.067Z,2.20
2022-12-07T22:24:21.307Z,2.20
2022-12-07T22:26:50.190Z,2.10
2022-12-07T22:29:17.344Z,2.20
2022-12-07T22:31:49.127Z,2.20
2022-12-07T22:34:20.187Z,2.20
2022-12-07T22:36:48.316Z,2.10
2022-12-07T22:39:15.192Z,2.20
2022-12-07T22:41:43.227Z,2.20
2022-12-07T22:44:10.931Z,2.20
2022-12-07T22:46:39.437Z,2.20
2022-12-07T22:49:06.369Z,2.20
2022-12-07T22:51:35.916Z,2.20
2022-12-07T22:54:05.801Z,2.20
2022-12-07T22:56:35.820Z,2.20
2022-12-07T22:59:02.685Z,2.20
2022-12-07T23:01:31.335Z,2.20
2022-12-07T23:03:59.797Z,2.10
2022-12-07T23:06:29.493Z,2.20
2022-12-07T23:08:59.169Z,2.20
2022-12-07T23:11:50.353Z,2.10
2022-12-07T23:14:25.367Z,2.10
2022-12-07T23:16:52.201Z,2.10
2022-12-07T23:19:20.663Z,2.10
2022-12-07T23:21:48.751Z,2.10
2022-12-07T23:24:17.424Z,2.10
2022-12-07T23:26:45.634Z,2.10
2022-12-07T23:29:18.169Z,2.10
2022-12-07T23:31:46.980Z,2.10
2022-12-07T23:34:15.588Z,2.10
2022-12-07T23:36:42.470Z,2.00
2022-12-07T23:39:11.549Z,2.10
2022-12-07T23:41:39.008Z,2.10
2022-12-07T23:44:07.645Z,2.10
2022-12-07T23:46:34.776Z,2.10
2022-12-07T23:49:05.549Z,2.10
2022-12-07T23:51:32.920Z,2.10
2022-12-07T23:54:01.953Z,2.10
2022-12-07T23:56:30.840Z,2.10
2022-12-07T23:58:58.302Z,2.10
